Time;durP1;ratioP1;P1;durP2;ratioP2;P2;SDS_P1;SDS_P2;PMS_P1;PMS_P2;Temp;Humidity;BMP_temperature;BMP_pressure;BME280_temperature;BME280_humidity;BME280_pressure;Samples;Min_cycle;Max_cycle;Signal;HPM_P1;HPM_P2
2021/12/06 00:02:13;;;;;;;17.75;2.72;;;4.80;99.90;;;;;;5066466;28;20275;-73
2021/12/06 00:04:40;;;;;;;13.60;2.65;;;4.80;99.90;;;;;;5065302;28;20082;-72
2021/12/06 00:07:13;;;;;;;9.48;2.50;;;4.70;99.90;;;;;;5065177;28;20033;-73
2021/12/06 00:09:40;;;;;;;9.38;2.72;;;4.80;99.90;;;;;;5065835;28;20044;-73
2021/12/06 00:12:06;;;;;;;14.70;3.08;;;4.80;99.90;;;;;;5066274;28;20088;-71
2021/12/06 00:14:36;;;;;;;13.40;2.97;;;4.70;99.90;;;;;;5065028;28;20029;-72
2021/12/06 00:17:04;;;;;;;9.95;2.95;;;4.70;99.90;;;;;;5066166;28;20033;-73
2021/12/06 00:19:30;;;;;;;14.65;2.85;;;4.70;99.90;;;;;;5065647;28;20024;-71
2021/12/06 00:21:58;;;;;;;6.80;2.78;;;4.80;99.90;;;;;;5063907;28;20219;-73
2021/12/06 00:24:25;;;;;;;17.08;3.95;;;4.80;99.90;;;;;;5048593;28;20031;-73
2021/12/06 00:26:51;;;;;;;9.93;3.00;;;4.70;99.90;;;;;;5064710;28;20286;-70
2021/12/06 00:29:18;;;;;;;11.88;3.22;;;4.70;99.90;;;;;;5065498;28;20037;-72
2021/12/06 00:31:44;;;;;;;19.25;3.25;;;4.70;99.90;;;;;;5065767;28;20020;-73
2021/12/06 00:34:14;;;;;;;10.98;2.80;;;4.70;99.90;;;;;;5065656;28;20331;-72
2021/12/06 00:36:51;;;;;;;8.25;2.83;;;4.70;99.90;;;;;;5064688;28;20059;-73
2021/12/06 00:39:16;;;;;;;10.93;2.80;;;4.60;99.90;;;;;;5064541;28;20025;-72
2021/12/06 00:41:42;;;;;;;9.10;2.50;;;4.60;99.90;;;;;;5065331;28;20074;-72
2021/12/06 00:44:08;;;;;;;10.50;3.22;;;4.70;99.90;;;;;;5065556;28;20314;-71
2021/12/06 00:46:37;;;;;;;15.32;3.00;;;4.70;99.90;;;;;;5065584;28;20021;-72
2021/12/06 00:49:08;;;;;;;12.18;3.28;;;4.70;99.90;;;;;;5064249;28;20041;-72
2021/12/06 00:51:34;;;;;;;11.73;3.53;;;4.60;99.90;;;;;;5063821;28;20087;-71
2021/12/06 00:54:00;;;;;;;9.93;2.85;;;4.60;99.90;;;;;;5047771;28;20067;-70
2021/12/06 00:56:25;;;;;;;8.45;2.58;;;4.60;99.90;;;;;;5065337;28;20017;-71
2021/12/06 00:58:51;;;;;;;8.13;2.78;;;4.60;99.90;;;;;;5065208;28;20043;-72
2021/12/06 01:01:17;;;;;;;7.93;3.00;;;4.70;99.90;;;;;;5065163;28;20023;-70
2021/12/06 01:03:43;;;;;;;12.90;3.05;;;4.80;99.90;;;;;;5065333;28;20087;-71
2021/12/06 01:06:11;;;;;;;7.50;2.72;;;4.80;99.90;;;;;;5064043;28;20028;-70
2021/12/06 01:08:38;;;;;;;10.07;3.40;;;4.80;99.90;;;;;;5064916;28;20075;-72
2021/12/06 01:11:05;;;;;;;10.25;3.03;;;4.70;99.90;;;;;;5064890;28;20037;-71
2021/12/06 01:13:31;;;;;;;8.88;2.70;;;4.80;99.90;;;;;;5063866;28;20207;-73
2021/12/06 01:15:58;;;;;;;12.10;3.47;;;4.90;99.90;;;;;;5065154;28;20025;-70
2021/12/06 01:18:25;;;;;;;9.18;2.85;;;4.80;99.90;;;;;;5063791;28;20090;-71
2021/12/06 01:21:02;;;;;;;8.48;2.78;;;4.80;99.90;;;;;;5063887;28;20066;-71
2021/12/06 01:23:40;;;;;;;9.50;2.97;;;4.80;99.90;;;;;;5063872;28;20031;-72
2021/12/06 01:26:29;;;;;;;9.95;3.28;;;4.70;99.90;;;;;;5064964;28;20027;-72
2021/12/06 01:29:38;;;;;;;8.73;3.42;;;4.60;99.90;;;;;;5063708;28;20044;-70
2021/12/06 01:32:24;;;;;;;8.90;2.88;;;4.50;99.90;;;;;;5063512;28;20108;-71
2021/12/06 01:39:55;;;;;;;9.00;3.25;;;4.10;99.90;;;;;;5063497;28;20071;-70
2021/12/06 01:42:21;;;;;;;11.50;4.00;;;4.00;99.90;;;;;;5064449;28;20021;-70
2021/12/06 01:44:52;;;;;;;10.98;3.70;;;3.90;99.90;;;;;;5064193;28;20036;-71
2021/12/06 01:47:21;;;;;;;8.60;3.13;;;3.90;99.90;;;;;;5046727;28;20227;-71
2021/12/06 01:49:50;;;;;;;12.80;3.53;;;3.90;99.90;;;;;;5064353;28;20324;-72
2021/12/06 01:52:21;;;;;;;16.63;4.03;;;3.80;99.90;;;;;;5063824;28;20016;-70
2021/12/06 01:54:49;;;;;;;16.35;3.63;;;3.80;99.90;;;;;;5063030;28;20102;-70
2021/12/06 01:57:15;;;;;;;12.90;3.53;;;3.90;99.90;;;;;;5062906;28;20272;-72
2021/12/06 01:59:41;;;;;;;10.18;3.53;;;4.00;99.90;;;;;;5063038;28;20029;-70
2021/12/06 02:02:08;;;;;;;11.23;3.38;;;3.90;99.90;;;;;;5063081;28;20111;-72
2021/12/06 02:04:36;;;;;;;12.07;3.70;;;4.00;99.90;;;;;;5047728;28;20021;-71
2021/12/06 02:07:06;;;;;;;10.00;3.22;;;4.00;99.90;;;;;;5065758;28;20025;-73
2021/12/06 02:09:32;;;;;;;9.05;3.42;;;3.90;99.90;;;;;;5065771;28;20362;-69
2021/12/06 02:12:01;;;;;;;11.85;3.78;;;3.80;99.90;;;;;;5065780;28;20020;-70
2021/12/06 02:17:20;;;;;;;12.18;4.05;;;3.80;99.90;;;;;;5063219;28;20032;-72
2021/12/06 02:19:50;;;;;;;11.70;4.30;;;3.80;99.90;;;;;;5062243;28;20025;-71
2021/12/06 02:22:21;;;;;;;13.50;4.05;;;3.70;99.90;;;;;;5060582;28;20031;-72
2021/12/06 02:24:48;;;;;;;10.95;3.88;;;3.70;99.90;;;;;;5062796;28;20160;-72
2021/12/06 02:27:14;;;;;;;8.38;3.83;;;3.60;99.90;;;;;;5063990;28;20260;-71
2021/12/06 02:29:43;;;;;;;12.18;3.78;;;3.60;99.90;;;;;;5062514;28;20033;-71
2021/12/06 02:32:12;;;;;;;8.75;3.70;;;3.50;99.90;;;;;;5062237;28;20189;-70
2021/12/06 02:34:40;;;;;;;13.07;4.15;;;3.40;99.90;;;;;;5062407;28;20053;-71
2021/12/06 02:37:06;;;;;;;11.90;4.57;;;3.40;99.90;;;;;;5062688;28;20025;-70
2021/12/06 02:39:32;;;;;;;9.88;3.60;;;3.20;99.90;;;;;;5063713;28;20021;-69
2021/12/06 02:42:00;;;;;;;12.15;3.88;;;3.20;99.90;;;;;;5063570;28;20363;-70
2021/12/06 02:44:27;;;;;;;11.40;3.72;;;3.10;99.90;;;;;;5063637;28;20024;-70
2021/12/06 02:46:53;;;;;;;16.95;3.85;;;3.10;99.90;;;;;;5063583;28;20079;-70
2021/12/06 02:49:19;;;;;;;12.18;3.47;;;3.00;99.90;;;;;;5063480;28;20235;-70
2021/12/06 02:51:45;;;;;;;16.10;3.67;;;3.00;99.90;;;;;;5062153;28;20092;-70
2021/12/06 02:54:11;;;;;;;12.30;3.70;;;3.00;99.90;;;;;;5063579;28;20081;-72
2021/12/06 02:57:17;;;;;;;9.23;3.55;;;3.10;99.90;;;;;;5063448;28;20036;-70
2021/12/06 02:59:25;;;;;;;8.63;3.83;;;3.10;99.90;;;;;;5062594;28;20025;-72
2021/12/06 03:01:57;;;;;;;10.65;3.85;;;3.00;99.90;;;;;;5062376;28;20021;-70
2021/12/06 03:04:23;;;;;;;;;;;3.10;99.90;;;;;;5062940;28;20016;-70
2021/12/06 03:06:53;;;;;;;9.65;3.92;;;3.00;99.90;;;;;;5063560;28;19974;-71
2021/12/06 03:09:24;;;;;;;6.40;3.42;;;3.00;99.90;;;;;;5062246;28;20037;-70
2021/12/06 03:11:55;;;;;;;10.60;3.95;;;3.00;99.90;;;;;;5062292;28;20079;-70
2021/12/06 03:14:26;;;;;;;14.27;3.58;;;3.10;99.90;;;;;;5062524;28;20342;-71
2021/12/06 03:16:54;;;;;;;13.15;3.55;;;3.10;99.90;;;;;;5062241;28;20041;-71
2021/12/06 03:19:21;;;;;;;10.43;3.42;;;3.10;99.90;;;;;;5063217;28;20021;-72
2021/12/06 03:21:47;;;;;;;14.05;3.50;;;3.10;99.90;;;;;;5045222;28;20060;-72
2021/12/06 03:24:13;;;;;;;13.57;3.45;;;3.00;99.90;;;;;;5061731;28;20223;-71
2021/12/06 03:26:40;;;;;;;11.15;3.40;;;3.10;99.90;;;;;;5062121;28;20028;-70
2021/12/06 03:29:06;;;;;;;13.93;3.85;;;3.20;99.90;;;;;;5062127;28;20039;-70
2021/12/06 03:31:32;;;;;;;9.40;3.47;;;3.20;99.90;;;;;;5065155;28;20033;-73
2021/12/06 03:33:59;;;;;;;9.27;3.58;;;3.30;99.90;;;;;;5065406;28;20053;-71
2021/12/06 03:36:26;;;;;;;10.25;4.15;;;3.40;99.90;;;;;;5065907;28;20083;-72
2021/12/06 03:38:54;;;;;;;10.77;3.05;;;3.40;99.90;;;;;;5065594;28;20028;-72
2021/12/06 03:41:22;;;;;;;10.82;3.05;;;3.50;99.90;;;;;;5065750;28;20017;-70
2021/12/06 03:43:48;;;;;;;18.17;3.67;;;3.60;99.90;;;;;;5065521;28;20102;-71
2021/12/06 03:46:17;;;;;;;8.73;2.75;;;3.60;99.90;;;;;;5066679;28;20029;-70
2021/12/06 03:48:43;;;;;;;14.82;3.22;;;3.50;99.90;;;;;;5065428;28;20231;-70
2021/12/06 03:51:08;;;;;;;11.25;3.92;;;3.40;99.90;;;;;;5066445;28;20044;-70
2021/12/06 03:53:34;;;;;;;7.55;3.33;;;3.30;99.90;;;;;;5066335;28;20060;-73
2021/12/06 03:56:00;;;;;;;12.75;3.30;;;3.40;99.90;;;;;;5066497;28;20200;-73
2021/12/06 03:58:27;;;;;;;10.00;3.17;;;3.40;99.90;;;;;;5065320;28;20297;-71
2021/12/06 04:00:53;;;;;;;9.95;3.75;;;3.40;99.90;;;;;;5066359;28;20096;-71
2021/12/06 04:03:21;;;;;;;9.02;3.58;;;3.40;99.90;;;;;;5066172;28;20017;-73
2021/12/06 04:05:48;;;;;;;12.93;4.10;;;3.50;99.90;;;;;;5065363;28;20017;-70
2021/12/06 04:08:14;;;;;;;13.18;3.55;;;3.60;99.90;;;;;;5065270;28;20139;-72
2021/12/06 04:10:40;;;;;;;9.73;3.45;;;3.70;99.90;;;;;;5064969;28;20028;-73
2021/12/06 04:13:06;;;;;;;10.63;3.80;;;3.80;99.90;;;;;;5066340;28;20055;-70
2021/12/06 04:15:33;;;;;;;14.98;3.67;;;3.70;99.90;;;;;;5066127;28;20024;-73
2021/12/06 04:18:00;;;;;;;13.05;3.40;;;3.70;99.90;;;;;;5064957;28;20017;-71
2021/12/06 04:20:26;;;;;;;10.88;3.40;;;3.70;99.90;;;;;;5064594;28;20021;-71
2021/12/06 04:22:53;;;;;;;10.73;4.03;;;3.70;99.90;;;;;;5064602;28;20032;-70
2021/12/06 04:25:19;;;;;;;9.27;3.47;;;3.60;99.90;;;;;;5064406;28;20361;-72
2021/12/06 04:27:52;;;;;;;6.75;3.63;;;3.60;99.90;;;;;;5066066;28;20025;-70
2021/12/06 04:30:19;;;;;;;9.02;3.03;;;3.60;99.90;;;;;;5048786;28;20063;-71
2021/12/06 04:32:45;;;;;;;14.73;4.28;;;3.60;99.90;;;;;;5065440;28;20021;-72
2021/12/06 04:35:11;;;;;;;7.47;3.17;;;3.60;99.90;;;;;;5065900;28;20048;-72
2021/12/06 04:37:37;;;;;;;7.40;3.00;;;3.50;99.90;;;;;;5065743;28;20384;-73
2021/12/06 04:40:05;;;;;;;8.07;3.95;;;3.50;99.90;;;;;;5065728;28;20108;-72
2021/12/06 04:42:31;;;;;;;12.27;3.17;;;3.50;99.90;;;;;;5064145;28;20296;-73
2021/12/06 04:44:57;;;;;;;8.65;2.75;;;3.70;99.90;;;;;;5064214;28;20021;-72
2021/12/06 04:47:23;;;;;;;9.32;3.83;;;3.80;99.90;;;;;;5064443;28;20033;-73
2021/12/06 04:49:49;;;;;;;10.15;3.75;;;3.80;99.90;;;;;;5065119;28;20060;-71
2021/12/06 04:52:17;;;;;;;10.70;3.20;;;3.80;99.90;;;;;;5065167;28;20093;-74
2021/12/06 04:54:48;;;;;;;7.82;2.90;;;3.80;99.90;;;;;;5064107;28;20067;-71
2021/12/06 04:57:40;;;;;;;12.60;3.10;;;3.80;99.90;;;;;;5065520;28;20025;-72
2021/12/06 05:00:14;;;;;;;6.78;3.63;;;4.00;99.90;;;;;;5064521;28;20029;-72
2021/12/06 05:02:42;;;;;;;7.15;3.08;;;4.00;99.90;;;;;;5064276;28;20029;-70
2021/12/06 05:05:12;;;;;;;12.00;3.30;;;4.00;99.90;;;;;;5065405;28;20020;-71
2021/12/06 05:07:43;;;;;;;9.75;3.08;;;4.00;99.90;;;;;;5064108;28;20289;-73
2021/12/06 05:10:10;;;;;;;5.35;2.42;;;4.10;99.90;;;;;;5065069;28;20020;-73
2021/12/06 05:12:36;;;;;;;7.93;3.00;;;4.10;99.90;;;;;;5065096;28;20032;-73
2021/12/06 05:15:04;;;;;;;11.77;2.50;;;4.20;99.90;;;;;;5064836;28;20296;-71
2021/12/06 05:17:30;;;;;;;8.43;2.60;;;4.20;99.90;;;;;;5063969;28;20300;-71
2021/12/06 05:19:55;;;;;;;6.22;2.13;;;4.20;99.90;;;;;;5064814;28;20047;-70
2021/12/06 05:22:24;;;;;;;8.63;1.98;;;4.20;99.90;;;;;;5064669;28;20220;-72
2021/12/06 05:24:50;;;;;;;7.55;1.77;;;4.20;99.90;;;;;;5062832;28;20315;-71
2021/12/06 05:27:16;;;;;;;4.55;2.00;;;4.20;99.90;;;;;;5064856;28;20044;-73
2021/12/06 05:29:45;;;;;;;10.57;2.13;;;4.30;99.90;;;;;;5064622;28;20025;-73
2021/12/06 05:32:11;;;;;;;10.52;2.35;;;4.30;99.90;;;;;;5063787;28;20024;-71
2021/12/06 05:34:40;;;;;;;7.32;2.28;;;4.30;99.90;;;;;;5064404;28;20068;-71
2021/12/06 05:37:09;;;;;;;12.63;2.28;;;4.40;99.90;;;;;;5064633;28;20025;-73
2021/12/06 05:39:36;;;;;;;6.25;2.33;;;4.50;99.90;;;;;;5063403;28;20048;-72
2021/12/06 05:42:06;;;;;;;7.47;2.25;;;4.50;99.90;;;;;;5064470;28;20033;-71
2021/12/06 05:44:32;;;;;;;6.20;1.60;;;4.60;99.90;;;;;;5064257;28;20079;-72
2021/12/06 05:46:58;;;;;;;6.85;1.90;;;4.70;99.90;;;;;;5064341;28;20259;-71
2021/12/06 05:49:25;;;;;;;6.10;1.75;;;4.80;99.90;;;;;;5064304;28;20255;-71
2021/12/06 05:51:51;;;;;;;7.68;1.58;;;4.80;99.90;;;;;;5062906;28;20052;-75
2021/12/06 05:54:18;;;;;;;9.77;2.10;;;4.80;99.90;;;;;;5063412;28;20017;-75
2021/12/06 05:56:44;;;;;;;4.38;1.48;;;4.80;99.90;;;;;;5064179;28;20031;-72
2021/12/06 05:59:10;;;;;;;5.00;1.75;;;4.80;99.90;;;;;;5064236;28;20029;-73
2021/12/06 06:01:37;;;;;;;8.25;1.80;;;4.80;99.90;;;;;;5064236;28;20155;-74
2021/12/06 06:04:03;;;;;;;9.48;1.85;;;4.80;99.90;;;;;;5063149;28;20021;-73
2021/12/06 06:06:30;;;;;;;8.07;1.60;;;4.90;99.90;;;;;;5062900;28;20059;-73
2021/12/06 06:08:56;;;;;;;6.47;1.58;;;4.90;99.90;;;;;;5063770;28;20059;-74
2021/12/06 06:11:22;;;;;;;5.82;1.75;;;4.90;99.90;;;;;;5064069;28;20071;-72
2021/12/06 06:13:48;;;;;;;6.28;1.50;;;5.00;99.90;;;;;;5064012;28;20243;-74
2021/12/06 06:16:18;;;;;;;5.70;2.00;;;5.00;99.90;;;;;;5063795;28;20220;-73
2021/12/06 06:18:44;;;;;;;10.02;1.65;;;5.00;99.90;;;;;;5063724;28;20300;-73
2021/12/06 06:21:10;;;;;;;10.07;1.83;;;5.10;99.90;;;;;;5063621;28;20035;-73
2021/12/06 06:23:36;;;;;;;10.43;1.98;;;5.00;99.90;;;;;;5063802;28;20076;-73
2021/12/06 06:26:02;;;;;;;8.90;2.28;;;5.10;99.90;;;;;;5062098;28;20028;-71
2021/12/06 06:28:28;;;;;;;5.20;1.70;;;5.10;99.90;;;;;;5062746;28;20307;-72
2021/12/06 06:30:54;;;;;;;10.70;2.00;;;5.20;99.90;;;;;;5063517;28;20043;-72
2021/12/06 06:33:20;;;;;;;10.65;1.90;;;5.10;99.90;;;;;;5062131;28;20220;-73
2021/12/06 06:35:46;;;;;;;11.20;1.88;;;5.20;99.90;;;;;;5062570;28;20384;-74
2021/12/06 06:38:12;;;;;;;7.30;1.90;;;5.20;99.90;;;;;;5063714;28;20029;-72
2021/12/06 06:40:38;;;;;;;10.30;2.42;;;5.30;99.90;;;;;;5062445;28;20021;-72
2021/12/06 06:43:04;;;;;;;6.65;1.95;;;5.30;99.90;;;;;;5062421;28;20028;-73
2021/12/06 06:45:31;;;;;;;6.20;1.90;;;5.30;99.90;;;;;;5062229;28;20025;-74
2021/12/06 06:47:57;;;;;;;8.10;2.10;;;5.30;99.90;;;;;;5063669;28;20024;-74
2021/12/06 06:50:23;;;;;;;14.57;3.10;;;5.40;99.90;;;;;;5063188;28;20078;-71
2021/12/06 06:52:49;;;;;;;12.15;1.95;;;5.40;99.90;;;;;;5062236;28;20048;-72
2021/12/06 06:55:15;;;;;;;9.15;2.10;;;5.40;99.90;;;;;;5063359;28;20058;-72
2021/12/06 06:57:43;;;;;;;12.40;2.38;;;5.50;99.90;;;;;;5063440;28;20013;-71
2021/12/06 07:00:13;;;;;;;10.82;2.67;;;5.50;99.90;;;;;;5063341;28;20212;-72
2021/12/06 07:02:39;;;;;;;13.60;2.60;;;5.50;99.90;;;;;;5062358;28;20059;-75
2021/12/06 07:05:06;;;;;;;7.20;1.27;;;5.50;99.90;;;;;;5063766;28;20099;-74
2021/12/06 07:07:31;;;;;;;6.63;1.35;;;5.60;99.90;;;;;;5067129;28;20028;-72
2021/12/06 07:09:57;;;;;;;23.75;3.08;;;5.60;99.90;;;;;;5049562;28;20033;-72
2021/12/06 07:12:23;;;;;;;10.23;2.10;;;5.70;99.90;;;;;;5067459;28;20025;-73
2021/12/06 07:14:49;;;;;;;4.70;1.35;;;5.70;99.90;;;;;;5067070;28;20308;-72
2021/12/06 07:17:16;;;;;;;9.43;2.17;;;5.80;99.90;;;;;;5066467;28;20099;-75
2021/12/06 07:19:42;;;;;;;7.00;2.30;;;5.80;99.90;;;;;;5066016;28;20025;-74
2021/12/06 07:22:09;;;;;;;7.18;1.42;;;5.80;99.90;;;;;;5065626;28;20028;-72
2021/12/06 07:24:35;;;;;;;11.82;1.92;;;5.90;99.90;;;;;;5067134;28;20025;-74
2021/12/06 07:27:00;;;;;;;7.85;1.38;;;5.90;99.90;;;;;;5065679;28;20020;-72
2021/12/06 07:29:27;;;;;;;11.85;1.70;;;5.90;99.90;;;;;;5066867;28;20033;-73
2021/12/06 07:31:53;;;;;;;5.43;1.30;;;5.90;99.90;;;;;;5066509;28;20029;-72
2021/12/06 07:34:19;;;;;;;7.75;1.63;;;5.90;99.90;;;;;;5065088;28;20213;-73
2021/12/06 07:36:45;;;;;;;9.13;1.30;;;6.00;99.90;;;;;;5065556;28;20021;-75
2021/12/06 07:39:11;;;;;;;9.18;1.58;;;6.00;99.90;;;;;;5066699;28;20048;-73
2021/12/06 07:41:37;;;;;;;6.00;1.27;;;6.00;99.90;;;;;;5066750;28;20211;-73
2021/12/06 07:44:04;;;;;;;5.35;1.60;;;6.00;99.90;;;;;;5065699;28;20025;-72
2021/12/06 07:46:30;;;;;;;8.90;1.80;;;6.10;99.90;;;;;;5065323;28;20028;-72
2021/12/06 07:48:56;;;;;;;5.68;1.67;;;6.10;99.90;;;;;;5065166;28;20036;-74
2021/12/06 07:51:25;;;;;;;7.97;1.27;;;6.10;99.90;;;;;;5066247;28;20024;-73
2021/12/06 07:53:51;;;;;;;7.88;1.77;;;6.10;99.90;;;;;;5066593;28;20028;-73
2021/12/06 07:56:18;;;;;;;6.07;1.40;;;6.20;99.90;;;;;;5065873;28;20362;-75
2021/12/06 07:58:44;;;;;;;7.90;1.60;;;6.20;99.90;;;;;;5065263;28;20088;-77
2021/12/06 08:01:11;;;;;;;10.23;1.90;;;6.30;99.90;;;;;;5065521;28;20025;-73
2021/12/06 08:03:38;;;;;;;10.57;1.58;;;6.30;99.90;;;;;;5065139;28;20040;-74
2021/12/06 08:06:04;;;;;;;9.77;1.60;;;6.40;99.90;;;;;;5066387;28;20021;-75
2021/12/06 08:08:32;;;;;;;17.60;2.15;;;6.40;99.90;;;;;;5064945;28;20013;-75
2021/12/06 08:11:04;;;;;;;7.65;1.55;;;6.40;99.90;;;;;;5065030;28;20056;-73
2021/12/06 08:13:33;;;;;;;6.15;1.48;;;6.40;99.90;;;;;;5066182;28;20091;-74
2021/12/06 08:16:04;;;;;;;6.80;1.60;;;6.40;99.90;;;;;;5065606;28;20021;-75
2021/12/06 08:18:30;;;;;;;9.27;1.90;;;6.50;99.90;;;;;;5063367;28;20025;-75
2021/12/06 08:20:56;;;;;;;4.35;1.10;;;6.40;99.90;;;;;;5081013;28;20048;-76
2021/12/06 08:23:23;;;;;;;9.60;1.50;;;6.40;99.90;;;;;;5074469;28;20023;-76
2021/12/06 08:25:51;;;;;;;5.13;1.70;;;6.40;99.90;;;;;;5064002;28;20051;-75
2021/12/06 08:28:18;;;;;;;5.93;1.50;;;6.50;99.90;;;;;;5047634;28;20053;-76
2021/12/06 08:30:46;;;;;;;12.65;1.70;;;6.40;99.90;;;;;;5048357;28;20096;-78
2021/12/06 08:33:13;;;;;;;7.85;1.42;;;6.50;99.90;;;;;;5063635;28;20159;-75
2021/12/06 08:35:46;;;;;;;12.55;2.50;;;6.50;99.90;;;;;;5065174;28;20053;-76
2021/12/06 08:38:13;;;;;;;9.90;2.40;;;6.50;99.90;;;;;;5063490;28;20027;-76
2021/12/06 08:40:42;;;;;;;10.60;2.60;;;6.50;99.90;;;;;;5044524;28;20025;-77
2021/12/06 08:43:09;;;;;;;12.65;2.25;;;6.50;99.90;;;;;;5049587;28;20024;-75
2021/12/06 08:45:35;;;;;;;5.43;1.55;;;6.50;99.90;;;;;;5064421;28;20025;-75
2021/12/06 08:48:01;;;;;;;6.82;2.15;;;6.40;99.90;;;;;;5063848;28;20045;-76
2021/12/06 08:50:29;;;;;;;6.78;1.75;;;6.40;99.90;;;;;;5064786;28;20056;-75
2021/12/06 08:52:55;;;;;;;15.95;2.90;;;6.50;99.90;;;;;;5063788;28;20388;-78
2021/12/06 08:55:23;;;;;;;14.52;2.60;;;6.50;99.90;;;;;;5064713;28;20032;-74
2021/12/06 08:57:50;;;;;;;10.60;2.20;;;6.50;99.90;;;;;;5027028;28;20197;-77
2021/12/06 09:00:22;;;;;;;7.15;1.80;;;6.50;99.90;;;;;;5043924;28;20025;-76
2021/12/06 09:02:48;;;;;;;9.63;1.92;;;6.50;99.90;;;;;;5043433;28;20021;-75
2021/12/06 09:05:13;;;;;;;4.38;1.65;;;6.60;99.90;;;;;;5043096;28;20029;-76
2021/12/06 09:07:39;;;;;;;8.10;1.60;;;6.50;99.90;;;;;;5044472;28;20243;-74
2021/12/06 09:10:10;;;;;;;8.27;1.98;;;6.60;99.90;;;;;;5042921;28;20305;-77
2021/12/06 09:12:36;;;;;;;4.55;1.85;;;6.50;99.90;;;;;;5046059;28;20087;-75
2021/12/06 09:15:08;;;;;;;6.90;1.70;;;6.60;99.90;;;;;;5059669;28;20583;-77
2021/12/06 09:17:35;;;;;;;5.22;1.70;;;6.60;99.90;;;;;;5047137;28;20045;-74
2021/12/06 09:20:03;;;;;;;7.55;1.85;;;6.60;99.90;;;;;;5062962;28;20036;-74
2021/12/06 09:22:29;;;;;;;5.38;1.80;;;6.60;99.90;;;;;;5049096;28;20022;-77
2021/12/06 09:24:54;;;;;;;8.93;2.10;;;6.60;99.90;;;;;;5042557;28;20025;-76
2021/12/06 09:27:21;;;;;;;5.15;1.90;;;6.60;99.90;;;;;;5042612;28;20032;-75
2021/12/06 09:29:46;;;;;;;9.68;2.22;;;6.50;99.90;;;;;;5042336;28;20044;-72
2021/12/06 09:32:14;;;;;;;6.07;1.75;;;6.50;99.90;;;;;;5043968;28;20100;-71
2021/12/06 09:34:44;;;;;;;4.68;1.65;;;6.50;99.90;;;;;;5043364;28;20049;-78
2021/12/06 09:37:11;;;;;;;8.15;1.90;;;6.50;99.90;;;;;;5064016;28;20013;-73
2021/12/06 09:39:38;;;;;;;7.25;1.70;;;6.50;99.90;;;;;;5056563;28;20108;-74
2021/12/06 09:42:05;;;;;;;9.05;2.13;;;6.50;99.90;;;;;;5062215;28;20027;-75
2021/12/06 09:44:32;;;;;;;7.38;1.85;;;6.50;99.90;;;;;;5060514;28;20021;-72
2021/12/06 09:46:57;;;;;;;5.80;1.92;;;6.50;99.90;;;;;;5063682;28;20359;-70
2021/12/06 09:49:24;;;;;;;7.93;1.92;;;6.60;99.90;;;;;;5046030;28;20031;-71
2021/12/06 09:51:54;;;;;;;9.00;2.03;;;6.40;99.90;;;;;;5042391;28;20036;-72
2021/12/06 09:54:23;;;;;;;7.45;2.15;;;6.30;99.90;;;;;;5026851;28;20128;-72
2021/12/06 09:56:50;;;;;;;6.40;2.30;;;6.40;99.90;;;;;;5032193;28;20044;-70
2021/12/06 09:59:20;;;;;;;10.48;2.00;;;6.40;99.90;;;;;;5042989;28;20017;-73
2021/12/06 10:01:50;;;;;;;8.95;2.50;;;6.40;99.90;;;;;;5042171;28;20017;-72
2021/12/06 10:04:19;;;;;;;5.80;2.08;;;6.40;99.90;;;;;;5028419;28;20033;-71
2021/12/06 10:06:46;;;;;;;8.57;1.98;;;6.50;99.90;;;;;;5059363;28;20354;-69
2021/12/06 10:09:14;;;;;;;10.10;1.50;;;6.60;99.90;;;;;;5043025;28;20021;-74
2021/12/06 10:11:41;;;;;;;7.90;1.23;;;6.70;99.90;;;;;;5031830;28;20025;-72
2021/12/06 10:14:07;;;;;;;11.48;2.10;;;6.80;99.90;;;;;;5061490;28;20031;-72
2021/12/06 10:16:33;;;;;;;5.97;1.80;;;6.80;99.90;;;;;;5063166;28;20032;-71
2021/12/06 10:19:00;;;;;;;10.57;2.33;;;6.80;99.90;;;;;;5062291;28;20255;-75
2021/12/06 10:21:27;;;;;;;6.10;1.67;;;6.90;99.90;;;;;;5042674;28;20041;-73
2021/12/06 10:23:55;;;;;;;8.95;1.63;;;7.00;99.90;;;;;;5057451;28;20067;-74
2021/12/06 10:26:24;;;;;;;6.85;1.50;;;7.10;99.90;;;;;;5024908;28;20029;-75
2021/12/06 10:28:57;;;;;;;3.45;1.38;;;7.10;99.90;;;;;;5007380;28;20193;-74
2021/12/06 10:31:24;;;;;;;5.68;1.30;;;7.20;99.90;;;;;;5054568;28;20028;-73
2021/12/06 10:33:51;;;;;;;4.55;1.35;;;7.30;99.90;;;;;;5061342;28;20048;-72
2021/12/06 10:36:18;;;;;;;5.72;1.58;;;7.40;99.90;;;;;;5041226;28;20053;-75
2021/12/06 10:38:53;;;;;;;4.93;1.40;;;7.50;99.90;;;;;;5036836;28;20029;-78
2021/12/06 10:41:21;;;;;;;2.83;1.02;;;7.50;99.90;;;;;;5088166;28;20218;-77
2021/12/06 10:43:58;;;;;;;6.43;1.10;;;7.60;99.90;;;;;;5071143;28;20103;-75
2021/12/06 10:46:25;;;;;;;6.35;0.82;;;7.70;99.90;;;;;;5063393;28;20021;-74
2021/12/06 10:48:56;;;;;;;5.47;0.93;;;7.70;99.90;;;;;;5071495;28;20025;-76
2021/12/06 10:51:23;;;;;;;5.53;0.80;;;7.70;99.90;;;;;;5067350;28;20021;-75
2021/12/06 10:54:00;;;;;;;3.10;0.88;;;7.80;99.90;;;;;;5050886;28;20049;-74
2021/12/06 10:56:37;;;;;;;6.60;0.90;;;7.90;99.90;;;;;;5067948;28;20031;-74
2021/12/06 10:59:07;;;;;;;4.00;0.88;;;8.00;99.90;;;;;;5052904;28;20316;-75
2021/12/06 11:01:33;;;;;;;2.80;0.70;;;8.10;99.90;;;;;;5067907;28;20088;-74
2021/12/06 11:04:03;;;;;;;4.63;0.85;;;8.10;99.90;;;;;;5068204;28;20037;-74
2021/12/06 11:06:36;;;;;;;4.72;0.90;;;8.20;99.90;;;;;;5051369;28;20017;-77
2021/12/06 11:09:04;;;;;;;1.65;0.63;;;8.20;99.90;;;;;;5050571;28;20025;-75
2021/12/06 11:11:34;;;;;;;7.45;0.68;;;8.30;99.90;;;;;;5064664;28;20072;-71
2021/12/06 11:14:04;;;;;;;6.57;0.70;;;8.30;99.90;;;;;;5047715;28;20350;-75
2021/12/06 11:16:33;;;;;;;3.63;0.75;;;8.40;99.90;;;;;;5047801;28;20336;-73
2021/12/06 11:19:04;;;;;;;4.35;1.08;;;8.50;99.90;;;;;;5066482;28;20276;-74
2021/12/06 11:21:38;;;;;;;5.25;0.60;;;8.80;99.90;;;;;;5048743;28;20060;-74
2021/12/06 11:24:22;;;;;;;4.75;1.60;;;9.00;99.90;;;;;;5063514;28;20013;-76
2021/12/06 11:27:10;;;;;;;3.65;0.95;;;9.20;99.90;;;;;;5047761;28;20037;-75
2021/12/06 11:29:54;;;;;;;4.40;0.95;;;9.30;99.90;;;;;;5045732;28;20029;-73
2021/12/06 11:32:25;;;;;;;5.05;0.90;;;9.40;99.90;;;;;;5065454;28;20108;-72
2021/12/06 11:34:55;;;;;;;1.88;0.65;;;9.40;99.90;;;;;;5066885;28;20116;-69
2021/12/06 11:37:25;;;;;;;4.90;1.08;;;9.40;99.90;;;;;;5066718;28;20227;-72
2021/12/06 11:40:14;;;;;;;10.02;1.38;;;9.50;99.90;;;;;;5046623;28;20237;-70
2021/12/06 11:43:03;;;;;;;11.48;1.05;;;9.60;99.90;;;;;;5029446;28;20085;-72
2021/12/06 11:45:49;;;;;;;8.40;1.20;;;9.60;99.90;;;;;;5048296;28;20092;-72
2021/12/06 11:48:18;;;;;;;7.43;1.20;;;9.70;99.90;;;;;;5048177;28;20088;-72
2021/12/06 11:50:48;;;;;;;7.53;1.00;;;9.80;99.90;;;;;;5029855;28;20140;-71
2021/12/06 11:53:16;;;;;;;11.10;1.42;;;9.80;99.90;;;;;;5044057;28;20052;-72
2021/12/06 11:56:01;;;;;;;13.18;1.67;;;9.90;99.90;;;;;;5044348;28;20026;-70
2021/12/06 11:58:32;;;;;;;10.15;1.92;;;9.90;99.90;;;;;;5043966;28;20351;-71
2021/12/06 12:01:13;;;;;;;12.18;2.28;;;9.90;99.90;;;;;;5045576;28;20203;-72
2021/12/06 12:03:41;;;;;;;9.13;1.92;;;9.90;99.90;;;;;;5045869;28;20051;-73
2021/12/06 12:06:26;;;;;;;11.85;2.90;;;10.00;99.90;;;;;;5027546;28;20220;-73
2021/12/06 12:09:20;;;;;;;10.13;1.77;;;10.00;99.90;;;;;;5045073;28;20025;-71
2021/12/06 12:12:22;;;;;;;8.77;1.38;;;10.10;99.90;;;;;;5053470;28;20024;-72
2021/12/06 12:14:55;;;;;;;9.05;1.52;;;10.10;99.90;;;;;;5054343;28;20066;-73
2021/12/06 12:17:27;;;;;;;8.50;1.50;;;10.10;99.90;;;;;;5071381;28;20227;-74
2021/12/06 12:19:55;;;;;;;10.52;1.58;;;10.20;99.90;;;;;;5056393;28;20327;-73
2021/12/06 12:22:23;;;;;;;13.88;1.55;;;10.20;99.90;;;;;;5043820;28;20040;-73
2021/12/06 12:24:53;;;;;;;8.70;1.73;;;10.20;99.90;;;;;;5044566;28;20316;-71
2021/12/06 12:27:34;;;;;;;9.88;1.83;;;10.20;99.90;;;;;;5049059;28;20009;-75
2021/12/06 12:30:02;;;;;;;7.35;1.30;;;10.20;99.90;;;;;;5046426;28;20036;-75
2021/12/06 12:32:29;;;;;;;12.57;2.00;;;10.20;99.90;;;;;;5062714;28;20213;-76
2021/12/06 12:34:59;;;;;;;7.07;1.73;;;10.20;99.90;;;;;;5061810;28;20110;-76
2021/12/06 12:37:26;;;;;;;12.98;1.88;;;10.20;99.90;;;;;;5063505;28;20033;-74
2021/12/06 12:40:09;;;;;;;11.77;1.92;;;10.10;99.90;;;;;;5062352;28;20070;-72
2021/12/06 12:42:35;;;;;;;12.88;1.67;;;10.10;99.90;;;;;;5063584;28;20028;-77
2021/12/06 12:45:05;;;;;;;15.63;2.65;;;10.10;99.90;;;;;;5063404;28;20092;-78
2021/12/06 12:47:34;;;;;;;12.13;2.05;;;10.10;99.90;;;;;;5034568;28;20025;-80
2021/12/06 12:50:09;;;;;;;11.32;1.77;;;10.10;99.90;;;;;;5044620;28;20135;-73
2021/12/06 12:52:47;;;;;;;12.52;2.75;;;10.00;99.90;;;;;;5045985;28;20048;-74
2021/12/06 12:55:42;;;;;;;14.43;2.15;;;10.00;99.90;;;;;;5046729;28;20037;-74
2021/12/06 12:58:14;;;;;;;8.30;1.52;;;9.90;99.90;;;;;;5052554;28;20067;-73
2021/12/06 13:00:58;;;;;;;13.50;2.10;;;9.90;99.90;;;;;;5066468;28;20069;-77
2021/12/06 13:03:49;;;;;;;10.02;1.63;;;9.90;99.90;;;;;;5063482;28;20033;-75
2021/12/06 13:06:22;;;;;;;13.25;1.83;;;9.90;99.90;;;;;;5063964;28;20037;-77
2021/12/06 13:08:56;;;;;;;11.25;1.88;;;10.00;99.90;;;;;;5062637;28;20025;-74
2021/12/06 13:11:25;;;;;;;15.32;2.38;;;10.00;99.90;;;;;;5063189;28;20056;-74